sensor_id;sensor_type;location;lat;lon;timestamp;P1;durP1;ratioP1;P2;durP2;ratioP2
20619;SDS011;10469;42.720;23.252;2023-06-22T00:01:15;14.85;;;10.35;;
20619;SDS011;10469;42.720;23.252;2023-06-22T00:03:41;10.48;;;9.15;;
20619;SDS011;10469;42.720;23.252;2023-06-22T00:06:06;11.10;;;9.35;;
20619;SDS011;10469;42.720;23.252;2023-06-22T00:08:32;15.95;;;9.85;;
20619;SDS011;10469;42.720;23.252;2023-06-22T00:10:57;13.73;;;9.82;;
20619;SDS011;10469;42.720;23.252;2023-06-22T00:13:22;11.30;;;10.10;;
20619;SDS011;10469;42.720;23.252;2023-06-22T00:15:48;12.85;;;9.82;;
20619;SDS011;10469;42.720;23.252;2023-06-22T00:18:14;14.65;;;10.27;;
20619;SDS011;10469;42.720;23.252;2023-06-22T00:20:40;16.48;;;10.07;;
20619;SDS011;10469;42.720;23.252;2023-06-22T00:39:49;15.52;;;11.77;;
20619;SDS011;10469;42.720;23.252;2023-06-22T00:42:15;12.15;;;10.80;;
20619;SDS011;10469;42.720;23.252;2023-06-22T00:44:40;12.68;;;11.35;;
20619;SDS011;10469;42.720;23.252;2023-06-22T00:47:06;14.25;;;11.75;;
20619;SDS011;10469;42.720;23.252;2023-06-22T00:49:32;18.00;;;13.68;;
20619;SDS011;10469;42.720;23.252;2023-06-22T00:51:57;16.17;;;12.70;;
20619;SDS011;10469;42.720;23.252;2023-06-22T00:54:24;17.83;;;11.27;;
20619;SDS011;10469;42.720;23.252;2023-06-22T00:56:51;13.40;;;12.00;;
20619;SDS011;10469;42.720;23.252;2023-06-22T00:59:20;17.10;;;14.13;;
20619;SDS011;10469;42.720;23.252;2023-06-22T01:01:46;15.00;;;12.93;;
20619;SDS011;10469;42.720;23.252;2023-06-22T01:04:12;14.60;;;11.43;;
20619;SDS011;10469;42.720;23.252;2023-06-22T01:06:59;15.38;;;12.68;;
20619;SDS011;10469;42.720;23.252;2023-06-22T01:09:40;20.40;;;12.60;;
20619;SDS011;10469;42.720;23.252;2023-06-22T01:12:14;17.52;;;11.27;;
20619;SDS011;10469;42.720;23.252;2023-06-22T01:14:48;18.80;;;14.00;;
20619;SDS011;10469;42.720;23.252;2023-06-22T01:26:02;19.30;;;12.70;;
20619;SDS011;10469;42.720;23.252;2023-06-22T01:31:16;14.30;;;11.68;;
20619;SDS011;10469;42.720;23.252;2023-06-22T01:33:47;13.50;;;11.65;;
20619;SDS011;10469;42.720;23.252;2023-06-22T01:36:16;15.88;;;12.38;;
20619;SDS011;10469;42.720;23.252;2023-06-22T01:44:28;15.52;;;12.43;;
20619;SDS011;10469;42.720;23.252;2023-06-22T01:46:54;20.65;;;12.13;;
20619;SDS011;10469;42.720;23.252;2023-06-22T01:49:20;14.70;;;11.70;;
20619;SDS011;10469;42.720;23.252;2023-06-22T01:51:46;25.58;;;12.15;;
20619;SDS011;10469;42.720;23.252;2023-06-22T01:54:12;14.15;;;12.18;;
20619;SDS011;10469;42.720;23.252;2023-06-22T01:56:38;18.88;;;12.63;;
20619;SDS011;10469;42.720;23.252;2023-06-22T01:59:48;18.63;;;13.23;;
20619;SDS011;10469;42.720;23.252;2023-06-22T02:02:00;17.38;;;12.30;;
20619;SDS011;10469;42.720;23.252;2023-06-22T02:04:51;13.27;;;11.88;;
20619;SDS011;10469;42.720;23.252;2023-06-22T02:07:22;15.10;;;12.85;;
20619;SDS011;10469;42.720;23.252;2023-06-22T02:09:49;15.25;;;11.82;;
20619;SDS011;10469;42.720;23.252;2023-06-22T02:12:18;13.20;;;11.68;;
20619;SDS011;10469;42.720;23.252;2023-06-22T02:14:48;16.23;;;11.45;;
20619;SDS011;10469;42.720;23.252;2023-06-22T02:17:17;13.52;;;11.10;;
20619;SDS011;10469;42.720;23.252;2023-06-22T02:19:43;15.63;;;11.50;;
20619;SDS011;10469;42.720;23.252;2023-06-22T02:22:09;16.02;;;11.57;;
20619;SDS011;10469;42.720;23.252;2023-06-22T02:24:34;21.08;;;12.45;;
20619;SDS011;10469;42.720;23.252;2023-06-22T02:27:00;17.23;;;11.82;;
20619;SDS011;10469;42.720;23.252;2023-06-22T02:29:27;17.35;;;11.40;;
20619;SDS011;10469;42.720;23.252;2023-06-22T02:31:53;14.93;;;11.13;;
20619;SDS011;10469;42.720;23.252;2023-06-22T02:34:19;15.13;;;11.38;;
20619;SDS011;10469;42.720;23.252;2023-06-22T02:36:45;17.23;;;12.23;;
20619;SDS011;10469;42.720;23.252;2023-06-22T02:39:24;18.33;;;11.40;;
20619;SDS011;10469;42.720;23.252;2023-06-22T02:41:50;15.57;;;11.57;;
20619;SDS011;10469;42.720;23.252;2023-06-22T02:44:19;16.88;;;11.90;;
20619;SDS011;10469;42.720;23.252;2023-06-22T02:46:45;15.98;;;12.10;;
20619;SDS011;10469;42.720;23.252;2023-06-22T02:49:12;13.18;;;11.35;;
20619;SDS011;10469;42.720;23.252;2023-06-22T02:51:41;16.38;;;12.48;;
20619;SDS011;10469;42.720;23.252;2023-06-22T02:54:10;16.88;;;12.30;;
20619;SDS011;10469;42.720;23.252;2023-06-22T02:56:35;16.98;;;12.70;;
20619;SDS011;10469;42.720;23.252;2023-06-22T02:59:02;23.05;;;11.68;;
20619;SDS011;10469;42.720;23.252;2023-06-22T03:01:28;23.83;;;12.88;;
20619;SDS011;10469;42.720;23.252;2023-06-22T03:03:55;16.00;;;11.85;;
20619;SDS011;10469;42.720;23.252;2023-06-22T03:06:21;21.88;;;12.25;;
20619;SDS011;10469;42.720;23.252;2023-06-22T03:08:59;23.30;;;12.35;;
20619;SDS011;10469;42.720;23.252;2023-06-22T03:11:25;24.52;;;12.73;;
20619;SDS011;10469;42.720;23.252;2023-06-22T03:13:51;20.05;;;13.07;;
20619;SDS011;10469;42.720;23.252;2023-06-22T03:16:18;18.10;;;12.40;;
20619;SDS011;10469;42.720;23.252;2023-06-22T03:18:44;16.08;;;11.98;;
20619;SDS011;10469;42.720;23.252;2023-06-22T03:21:10;19.48;;;12.77;;
20619;SDS011;10469;42.720;23.252;2023-06-22T03:23:35;18.58;;;11.95;;
20619;SDS011;10469;42.720;23.252;2023-06-22T03:26:01;18.52;;;11.82;;
20619;SDS011;10469;42.720;23.252;2023-06-22T03:28:27;16.30;;;11.70;;
20619;SDS011;10469;42.720;23.252;2023-06-22T03:30:53;21.23;;;12.23;;
20619;SDS011;10469;42.720;23.252;2023-06-22T03:33:19;21.50;;;12.18;;
20619;SDS011;10469;42.720;23.252;2023-06-22T03:35:44;18.50;;;14.90;;
20619;SDS011;10469;42.720;23.252;2023-06-22T03:38:09;18.05;;;12.68;;
20619;SDS011;10469;42.720;23.252;2023-06-22T03:40:35;22.73;;;12.13;;
20619;SDS011;10469;42.720;23.252;2023-06-22T03:43:01;16.60;;;12.10;;
20619;SDS011;10469;42.720;23.252;2023-06-22T03:45:26;15.55;;;11.50;;
20619;SDS011;10469;42.720;23.252;2023-06-22T03:47:52;17.92;;;11.18;;
20619;SDS011;10469;42.720;23.252;2023-06-22T03:50:18;25.63;;;11.88;;
20619;SDS011;10469;42.720;23.252;2023-06-22T03:52:45;12.73;;;10.95;;
20619;SDS011;10469;42.720;23.252;2023-06-22T03:55:11;22.25;;;12.23;;
20619;SDS011;10469;42.720;23.252;2023-06-22T03:57:37;12.00;;;10.25;;
20619;SDS011;10469;42.720;23.252;2023-06-22T04:00:02;11.65;;;9.65;;
20619;SDS011;10469;42.720;23.252;2023-06-22T04:02:30;14.25;;;10.57;;
20619;SDS011;10469;42.720;23.252;2023-06-22T04:04:56;16.13;;;10.65;;
20619;SDS011;10469;42.720;23.252;2023-06-22T04:07:22;13.18;;;10.45;;
20619;SDS011;10469;42.720;23.252;2023-06-22T04:09:47;19.20;;;12.00;;
20619;SDS011;10469;42.720;23.252;2023-06-22T04:12:13;13.18;;;10.85;;
20619;SDS011;10469;42.720;23.252;2023-06-22T04:14:38;19.20;;;11.90;;
20619;SDS011;10469;42.720;23.252;2023-06-22T04:17:04;22.70;;;11.90;;
20619;SDS011;10469;42.720;23.252;2023-06-22T04:19:30;18.33;;;12.70;;
20619;SDS011;10469;42.720;23.252;2023-06-22T04:21:55;17.08;;;12.48;;
20619;SDS011;10469;42.720;23.252;2023-06-22T04:24:21;15.85;;;10.77;;
20619;SDS011;10469;42.720;23.252;2023-06-22T04:26:47;23.75;;;11.68;;
20619;SDS011;10469;42.720;23.252;2023-06-22T04:29:12;15.25;;;11.50;;
20619;SDS011;10469;42.720;23.252;2023-06-22T04:31:38;19.40;;;12.02;;
20619;SDS011;10469;42.720;23.252;2023-06-22T04:34:04;19.77;;;12.10;;
20619;SDS011;10469;42.720;23.252;2023-06-22T04:36:34;20.73;;;12.65;;
20619;SDS011;10469;42.720;23.252;2023-06-22T04:39:03;22.27;;;12.45;;
20619;SDS011;10469;42.720;23.252;2023-06-22T04:41:34;25.60;;;13.45;;
20619;SDS011;10469;42.720;23.252;2023-06-22T04:44:10;16.45;;;12.98;;
20619;SDS011;10469;42.720;23.252;2023-06-22T04:46:54;17.20;;;12.55;;
20619;SDS011;10469;42.720;23.252;2023-06-22T04:49:29;18.65;;;12.18;;
20619;SDS011;10469;42.720;23.252;2023-06-22T04:51:58;22.45;;;12.77;;
20619;SDS011;10469;42.720;23.252;2023-06-22T04:54:25;22.48;;;13.45;;
20619;SDS011;10469;42.720;23.252;2023-06-22T04:57:00;24.45;;;14.25;;
20619;SDS011;10469;42.720;23.252;2023-06-22T04:59:27;18.63;;;12.90;;
20619;SDS011;10469;42.720;23.252;2023-06-22T05:04:24;27.25;;;13.43;;
20619;SDS011;10469;42.720;23.252;2023-06-22T05:06:51;28.02;;;13.85;;
20619;SDS011;10469;42.720;23.252;2023-06-22T05:09:17;19.35;;;12.45;;
20619;SDS011;10469;42.720;23.252;2023-06-22T05:11:45;20.05;;;13.80;;
20619;SDS011;10469;42.720;23.252;2023-06-22T05:14:12;26.70;;;13.27;;
20619;SDS011;10469;42.720;23.252;2023-06-22T05:16:37;19.95;;;13.23;;
20619;SDS011;10469;42.720;23.252;2023-06-22T05:19:06;23.92;;;12.80;;
20619;SDS011;10469;42.720;23.252;2023-06-22T05:21:32;19.45;;;12.95;;
20619;SDS011;10469;42.720;23.252;2023-06-22T05:23:57;18.60;;;13.65;;
20619;SDS011;10469;42.720;23.252;2023-06-22T05:26:32;22.65;;;13.15;;
20619;SDS011;10469;42.720;23.252;2023-06-22T05:28:59;23.90;;;13.52;;
20619;SDS011;10469;42.720;23.252;2023-06-22T05:31:27;18.77;;;14.07;;
20619;SDS011;10469;42.720;23.252;2023-06-22T05:33:54;21.52;;;13.40;;
20619;SDS011;10469;42.720;23.252;2023-06-22T05:36:21;24.45;;;14.00;;
20619;SDS011;10469;42.720;23.252;2023-06-22T05:38:50;28.60;;;14.73;;
20619;SDS011;10469;42.720;23.252;2023-06-22T05:41:19;24.25;;;14.32;;
20619;SDS011;10469;42.720;23.252;2023-06-22T05:43:44;23.48;;;13.80;;
20619;SDS011;10469;42.720;23.252;2023-06-22T05:46:10;23.70;;;12.23;;
20619;SDS011;10469;42.720;23.252;2023-06-22T05:48:36;27.58;;;13.25;;
20619;SDS011;10469;42.720;23.252;2023-06-22T05:51:02;19.30;;;11.73;;
20619;SDS011;10469;42.720;23.252;2023-06-22T05:53:28;21.42;;;14.02;;
20619;SDS011;10469;42.720;23.252;2023-06-22T05:55:53;15.38;;;12.65;;
20619;SDS011;10469;42.720;23.252;2023-06-22T05:58:19;13.40;;;11.13;;
20619;SDS011;10469;42.720;23.252;2023-06-22T06:00:44;17.27;;;10.93;;
20619;SDS011;10469;42.720;23.252;2023-06-22T06:03:11;15.32;;;11.88;;
20619;SDS011;10469;42.720;23.252;2023-06-22T06:05:37;16.45;;;12.50;;
20619;SDS011;10469;42.720;23.252;2023-06-22T06:08:03;18.08;;;12.15;;
20619;SDS011;10469;42.720;23.252;2023-06-22T06:10:30;17.70;;;12.07;;
20619;SDS011;10469;42.720;23.252;2023-06-22T06:12:57;20.65;;;12.25;;
20619;SDS011;10469;42.720;23.252;2023-06-22T06:15:22;20.88;;;12.65;;
20619;SDS011;10469;42.720;23.252;2023-06-22T06:17:48;18.80;;;12.90;;
20619;SDS011;10469;42.720;23.252;2023-06-22T06:20:18;23.33;;;12.68;;
20619;SDS011;10469;42.720;23.252;2023-06-22T06:22:46;18.77;;;13.23;;
20619;SDS011;10469;42.720;23.252;2023-06-22T06:25:12;23.98;;;13.60;;
20619;SDS011;10469;42.720;23.252;2023-06-22T06:27:41;18.15;;;12.88;;
20619;SDS011;10469;42.720;23.252;2023-06-22T06:30:08;20.80;;;13.32;;
20619;SDS011;10469;42.720;23.252;2023-06-22T06:32:34;24.27;;;13.07;;
20619;SDS011;10469;42.720;23.252;2023-06-22T06:35:00;17.48;;;12.00;;
20619;SDS011;10469;42.720;23.252;2023-06-22T06:37:25;14.57;;;11.85;;
20619;SDS011;10469;42.720;23.252;2023-06-22T06:39:51;19.77;;;12.70;;
20619;SDS011;10469;42.720;23.252;2023-06-22T06:42:16;20.80;;;12.23;;
20619;SDS011;10469;42.720;23.252;2023-06-22T06:44:44;23.85;;;12.27;;
20619;SDS011;10469;42.720;23.252;2023-06-22T06:47:09;19.00;;;11.77;;
20619;SDS011;10469;42.720;23.252;2023-06-22T06:49:35;22.73;;;12.07;;
20619;SDS011;10469;42.720;23.252;2023-06-22T06:52:01;21.90;;;12.00;;
20619;SDS011;10469;42.720;23.252;2023-06-22T06:54:26;25.40;;;11.55;;
20619;SDS011;10469;42.720;23.252;2023-06-22T06:56:53;16.27;;;11.13;;
20619;SDS011;10469;42.720;23.252;2023-06-22T06:59:18;21.23;;;12.13;;
20619;SDS011;10469;42.720;23.252;2023-06-22T07:01:44;20.00;;;11.07;;
20619;SDS011;10469;42.720;23.252;2023-06-22T07:04:10;12.82;;;9.90;;
20619;SDS011;10469;42.720;23.252;2023-06-22T07:06:35;16.10;;;10.73;;
20619;SDS011;10469;42.720;23.252;2023-06-22T07:09:01;11.93;;;9.50;;
20619;SDS011;10469;42.720;23.252;2023-06-22T07:11:28;14.65;;;9.68;;
20619;SDS011;10469;42.720;23.252;2023-06-22T07:13:54;17.58;;;9.63;;
20619;SDS011;10469;42.720;23.252;2023-06-22T07:16:19;13.35;;;9.15;;
20619;SDS011;10469;42.720;23.252;2023-06-22T07:18:45;16.10;;;10.02;;
20619;SDS011;10469;42.720;23.252;2023-06-22T07:21:10;18.80;;;10.52;;
20619;SDS011;10469;42.720;23.252;2023-06-22T07:23:36;17.20;;;9.75;;
20619;SDS011;10469;42.720;23.252;2023-06-22T07:26:01;16.80;;;9.52;;
20619;SDS011;10469;42.720;23.252;2023-06-22T07:28:27;10.60;;;8.82;;
20619;SDS011;10469;42.720;23.252;2023-06-22T07:30:56;13.10;;;8.95;;
20619;SDS011;10469;42.720;23.252;2023-06-22T07:33:22;11.45;;;7.90;;
20619;SDS011;10469;42.720;23.252;2023-06-22T07:35:47;14.20;;;8.30;;
20619;SDS011;10469;42.720;23.252;2023-06-22T07:38:13;10.57;;;8.18;;
20619;SDS011;10469;42.720;23.252;2023-06-22T07:40:39;13.57;;;8.50;;
20619;SDS011;10469;42.720;23.252;2023-06-22T07:43:06;19.40;;;9.23;;
20619;SDS011;10469;42.720;23.252;2023-06-22T07:45:32;12.35;;;8.65;;
20619;SDS011;10469;42.720;23.252;2023-06-22T07:47:59;11.68;;;8.82;;
20619;SDS011;10469;42.720;23.252;2023-06-22T07:50:25;10.88;;;9.38;;
20619;SDS011;10469;42.720;23.252;2023-06-22T07:52:51;13.60;;;9.57;;
20619;SDS011;10469;42.720;23.252;2023-06-22T07:55:18;18.02;;;9.70;;
20619;SDS011;10469;42.720;23.252;2023-06-22T07:57:43;15.70;;;9.75;;
20619;SDS011;10469;42.720;23.252;2023-06-22T08:00:09;15.40;;;10.40;;
20619;SDS011;10469;42.720;23.252;2023-06-22T08:02:42;15.63;;;10.55;;
20619;SDS011;10469;42.720;23.252;2023-06-22T08:05:11;12.68;;;11.32;;
20619;SDS011;10469;42.720;23.252;2023-06-22T08:07:37;12.45;;;10.73;;
20619;SDS011;10469;42.720;23.252;2023-06-22T08:10:06;13.50;;;10.50;;
20619;SDS011;10469;42.720;23.252;2023-06-22T08:12:35;13.75;;;9.68;;
20619;SDS011;10469;42.720;23.252;2023-06-22T08:15:00;16.08;;;9.50;;
20619;SDS011;10469;42.720;23.252;2023-06-22T08:17:26;12.60;;;9.93;;
20619;SDS011;10469;42.720;23.252;2023-06-22T08:19:51;11.85;;;9.57;;
20619;SDS011;10469;42.720;23.252;2023-06-22T08:22:17;12.32;;;9.18;;
20619;SDS011;10469;42.720;23.252;2023-06-22T08:24:43;19.02;;;10.27;;
20619;SDS011;10469;42.720;23.252;2023-06-22T08:27:09;15.13;;;9.73;;
20619;SDS011;10469;42.720;23.252;2023-06-22T08:29:39;13.77;;;9.73;;
20619;SDS011;10469;42.720;23.252;2023-06-22T08:32:08;17.75;;;9.45;;
20619;SDS011;10469;42.720;23.252;2023-06-22T08:34:34;13.48;;;9.27;;
20619;SDS011;10469;42.720;23.252;2023-06-22T08:36:59;13.07;;;9.27;;
20619;SDS011;10469;42.720;23.252;2023-06-22T08:39:25;10.73;;;9.23;;
20619;SDS011;10469;42.720;23.252;2023-06-22T08:41:52;12.45;;;9.80;;
20619;SDS011;10469;42.720;23.252;2023-06-22T08:44:18;17.30;;;9.77;;
20619;SDS011;10469;42.720;23.252;2023-06-22T08:46:44;13.68;;;9.13;;
20619;SDS011;10469;42.720;23.252;2023-06-22T08:49:10;13.48;;;8.85;;
20619;SDS011;10469;42.720;23.252;2023-06-22T08:51:36;9.65;;;8.75;;
20619;SDS011;10469;42.720;23.252;2023-06-22T08:54:01;9.60;;;8.63;;
20619;SDS011;10469;42.720;23.252;2023-06-22T08:56:27;13.02;;;8.60;;
20619;SDS011;10469;42.720;23.252;2023-06-22T08:58:52;12.98;;;8.40;;
20619;SDS011;10469;42.720;23.252;2023-06-22T09:01:18;11.35;;;8.77;;
20619;SDS011;10469;42.720;23.252;2023-06-22T09:03:44;8.98;;;7.97;;
20619;SDS011;10469;42.720;23.252;2023-06-22T09:06:13;15.93;;;9.40;;
20619;SDS011;10469;42.720;23.252;2023-06-22T09:08:39;9.77;;;8.77;;
20619;SDS011;10469;42.720;23.252;2023-06-22T09:11:05;11.32;;;8.23;;
20619;SDS011;10469;42.720;23.252;2023-06-22T09:13:30;9.57;;;7.88;;
20619;SDS011;10469;42.720;23.252;2023-06-22T09:15:58;9.80;;;7.70;;
20619;SDS011;10469;42.720;23.252;2023-06-22T09:18:23;9.63;;;8.38;;
20619;SDS011;10469;42.720;23.252;2023-06-22T09:20:49;11.32;;;7.63;;
20619;SDS011;10469;42.720;23.252;2023-06-22T09:23:14;9.05;;;7.43;;
20619;SDS011;10469;42.720;23.252;2023-06-22T09:25:40;23.85;;;7.78;;
20619;SDS011;10469;42.720;23.252;2023-06-22T09:28:06;13.15;;;7.63;;
20619;SDS011;10469;42.720;23.252;2023-06-22T09:30:31;9.95;;;7.90;;
20619;SDS011;10469;42.720;23.252;2023-06-22T09:32:57;11.00;;;7.38;;
20619;SDS011;10469;42.720;23.252;2023-06-22T09:35:22;14.40;;;7.60;;
20619;SDS011;10469;42.720;23.252;2023-06-22T09:37:48;9.20;;;6.95;;
20619;SDS011;10469;42.720;23.252;2023-06-22T09:40:13;15.20;;;8.00;;
20619;SDS011;10469;42.720;23.252;2023-06-22T09:42:41;10.93;;;7.20;;
20619;SDS011;10469;42.720;23.252;2023-06-22T09:45:07;7.68;;;6.90;;
20619;SDS011;10469;42.720;23.252;2023-06-22T09:47:33;8.10;;;7.30;;
20619;SDS011;10469;42.720;23.252;2023-06-22T09:49:59;10.60;;;7.28;;
20619;SDS011;10469;42.720;23.252;2023-06-22T09:52:24;9.23;;;6.70;;
20619;SDS011;10469;42.720;23.252;2023-06-22T09:54:50;14.32;;;7.43;;
20619;SDS011;10469;42.720;23.252;2023-06-22T09:57:16;8.77;;;6.63;;
20619;SDS011;10469;42.720;23.252;2023-06-22T09:59:42;7.45;;;6.75;;
20619;SDS011;10469;42.720;23.252;2023-06-22T10:02:07;8.52;;;6.68;;
20619;SDS011;10469;42.720;23.252;2023-06-22T10:04:34;6.65;;;6.05;;
20619;SDS011;10469;42.720;23.252;2023-06-22T10:07:00;8.70;;;6.80;;
20619;SDS011;10469;42.720;23.252;2023-06-22T10:09:26;14.18;;;7.80;;
20619;SDS011;10469;42.720;23.252;2023-06-22T10:11:51;11.30;;;6.85;;
20619;SDS011;10469;42.720;23.252;2023-06-22T10:14:17;11.45;;;7.28;;
20619;SDS011;10469;42.720;23.252;2023-06-22T10:16:42;8.63;;;7.82;;
20619;SDS011;10469;42.720;23.252;2023-06-22T10:19:08;8.38;;;7.03;;
20619;SDS011;10469;42.720;23.252;2023-06-22T10:21:33;8.77;;;7.47;;
20619;SDS011;10469;42.720;23.252;2023-06-22T10:23:59;12.98;;;7.63;;
20619;SDS011;10469;42.720;23.252;2023-06-22T10:26:31;11.82;;;7.47;;
20619;SDS011;10469;42.720;23.252;2023-06-22T10:28:59;8.80;;;7.20;;
20619;SDS011;10469;42.720;23.252;2023-06-22T10:31:25;9.15;;;7.18;;
20619;SDS011;10469;42.720;23.252;2023-06-22T10:33:51;9.93;;;7.22;;
20619;SDS011;10469;42.720;23.252;2023-06-22T10:36:16;12.57;;;7.20;;
20619;SDS011;10469;42.720;23.252;2023-06-22T10:38:41;10.15;;;7.13;;
20619;SDS011;10469;42.720;23.252;2023-06-22T10:41:07;11.05;;;7.25;;
20619;SDS011;10469;42.720;23.252;2023-06-22T10:43:32;8.77;;;7.88;;
20619;SDS011;10469;42.720;23.252;2023-06-22T10:45:58;8.20;;;6.75;;
20619;SDS011;10469;42.720;23.252;2023-06-22T10:48:23;8.93;;;6.95;;
20619;SDS011;10469;42.720;23.252;2023-06-22T10:50:49;9.50;;;6.57;;
20619;SDS011;10469;42.720;23.252;2023-06-22T10:53:14;11.65;;;7.70;;
20619;SDS011;10469;42.720;23.252;2023-06-22T10:55:40;7.53;;;6.78;;
20619;SDS011;10469;42.720;23.252;2023-06-22T10:58:05;9.45;;;7.72;;
20619;SDS011;10469;42.720;23.252;2023-06-22T11:00:31;7.22;;;6.55;;
20619;SDS011;10469;42.720;23.252;2023-06-22T11:02:56;8.48;;;7.63;;
20619;SDS011;10469;42.720;23.252;2023-06-22T11:05:23;11.10;;;7.82;;
20619;SDS011;10469;42.720;23.252;2023-06-22T11:07:48;10.23;;;7.68;;
20619;SDS011;10469;42.720;23.252;2023-06-22T11:10:14;8.15;;;7.38;;
20619;SDS011;10469;42.720;23.252;2023-06-22T11:12:40;13.68;;;7.20;;
20619;SDS011;10469;42.720;23.252;2023-06-22T11:15:07;9.85;;;7.43;;
20619;SDS011;10469;42.720;23.252;2023-06-22T11:17:33;10.48;;;7.05;;
20619;SDS011;10469;42.720;23.252;2023-06-22T11:19:58;10.23;;;7.75;;
20619;SDS011;10469;42.720;23.252;2023-06-22T11:22:25;11.00;;;7.47;;
20619;SDS011;10469;42.720;23.252;2023-06-22T11:24:50;8.63;;;7.30;;
20619;SDS011;10469;42.720;23.252;2023-06-22T11:27:16;9.77;;;8.13;;
20619;SDS011;10469;42.720;23.252;2023-06-22T11:29:42;9.13;;;7.95;;
20619;SDS011;10469;42.720;23.252;2023-06-22T11:32:07;9.40;;;8.10;;
20619;SDS011;10469;42.720;23.252;2023-06-22T11:34:33;8.77;;;7.97;;
20619;SDS011;10469;42.720;23.252;2023-06-22T11:36:58;13.60;;;8.60;;
20619;SDS011;10469;42.720;23.252;2023-06-22T11:39:24;17.67;;;8.60;;
20619;SDS011;10469;42.720;23.252;2023-06-22T11:41:49;19.23;;;10.27;;
20619;SDS011;10469;42.720;23.252;2023-06-22T11:44:15;19.88;;;11.93;;
20619;SDS011;10469;42.720;23.252;2023-06-22T11:46:40;18.52;;;11.23;;
20619;SDS011;10469;42.720;23.252;2023-06-22T11:49:06;21.10;;;11.38;;
20619;SDS011;10469;42.720;23.252;2023-06-22T11:51:31;18.70;;;10.48;;
20619;SDS011;10469;42.720;23.252;2023-06-22T11:53:57;16.73;;;11.23;;
20619;SDS011;10469;42.720;23.252;2023-06-22T11:56:23;12.25;;;10.40;;
20619;SDS011;10469;42.720;23.252;2023-06-22T11:58:49;14.98;;;11.35;;
20619;SDS011;10469;42.720;23.252;2023-06-22T12:01:14;13.45;;;10.70;;
20619;SDS011;10469;42.720;23.252;2023-06-22T12:03:40;12.38;;;10.00;;
20619;SDS011;10469;42.720;23.252;2023-06-22T12:06:08;11.10;;;9.32;;
20619;SDS011;10469;42.720;23.252;2023-06-22T12:08:33;14.82;;;9.77;;
20619;SDS011;10469;42.720;23.252;2023-06-22T12:10:59;12.35;;;10.32;;
20619;SDS011;10469;42.720;23.252;2023-06-22T12:13:24;12.10;;;9.50;;
20619;SDS011;10469;42.720;23.252;2023-06-22T12:15:50;18.80;;;11.48;;
20619;SDS011;10469;42.720;23.252;2023-06-22T12:18:17;14.90;;;10.27;;
20619;SDS011;10469;42.720;23.252;2023-06-22T12:20:45;19.60;;;11.95;;
20619;SDS011;10469;42.720;23.252;2023-06-22T12:23:11;13.38;;;10.10;;
20619;SDS011;10469;42.720;23.252;2023-06-22T12:25:36;19.52;;;13.00;;
20619;SDS011;10469;42.720;23.252;2023-06-22T12:28:02;17.00;;;10.57;;
20619;SDS011;10469;42.720;23.252;2023-06-22T12:30:29;15.95;;;7.53;;
20619;SDS011;10469;42.720;23.252;2023-06-22T12:32:55;17.90;;;7.47;;
20619;SDS011;10469;42.720;23.252;2023-06-22T12:35:20;16.23;;;7.07;;
20619;SDS011;10469;42.720;23.252;2023-06-22T12:37:46;14.30;;;7.97;;
20619;SDS011;10469;42.720;23.252;2023-06-22T12:40:12;11.27;;;6.95;;
20619;SDS011;10469;42.720;23.252;2023-06-22T12:42:37;12.77;;;7.63;;
20619;SDS011;10469;42.720;23.252;2023-06-22T12:45:03;8.73;;;6.40;;
20619;SDS011;10469;42.720;23.252;2023-06-22T12:47:29;12.00;;;6.80;;
20619;SDS011;10469;42.720;23.252;2023-06-22T12:49:55;15.57;;;6.65;;
20619;SDS011;10469;42.720;23.252;2023-06-22T12:52:20;7.68;;;5.25;;
20619;SDS011;10469;42.720;23.252;2023-06-22T12:54:46;9.95;;;6.13;;
20619;SDS011;10469;42.720;23.252;2023-06-22T12:57:12;6.65;;;5.85;;
20619;SDS011;10469;42.720;23.252;2023-06-22T12:59:38;9.70;;;6.03;;
20619;SDS011;10469;42.720;23.252;2023-06-22T13:02:03;11.75;;;6.88;;
20619;SDS011;10469;42.720;23.252;2023-06-22T13:04:29;9.45;;;7.25;;
20619;SDS011;10469;42.720;23.252;2023-06-22T13:06:54;11.07;;;7.20;;
20619;SDS011;10469;42.720;23.252;2023-06-22T13:09:20;9.90;;;7.45;;
20619;SDS011;10469;42.720;23.252;2023-06-22T13:11:45;14.40;;;7.28;;
20619;SDS011;10469;42.720;23.252;2023-06-22T13:14:11;14.45;;;6.88;;
20619;SDS011;10469;42.720;23.252;2023-06-22T13:16:37;13.55;;;6.97;;
20619;SDS011;10469;42.720;23.252;2023-06-22T13:19:02;9.52;;;6.32;;
20619;SDS011;10469;42.720;23.252;2023-06-22T13:21:28;9.57;;;6.68;;
20619;SDS011;10469;42.720;23.252;2023-06-22T13:23:53;11.80;;;6.60;;
20619;SDS011;10469;42.720;23.252;2023-06-22T13:26:19;17.52;;;7.75;;
20619;SDS011;10469;42.720;23.252;2023-06-22T13:28:45;14.05;;;8.02;;
20619;SDS011;10469;42.720;23.252;2023-06-22T13:31:11;25.08;;;8.07;;
20619;SDS011;10469;42.720;23.252;2023-06-22T13:33:37;15.57;;;9.55;;
20619;SDS011;10469;42.720;23.252;2023-06-22T13:36:03;14.40;;;8.55;;
20619;SDS011;10469;42.720;23.252;2023-06-22T13:38:28;16.40;;;10.32;;
20619;SDS011;10469;42.720;23.252;2023-06-22T13:40:55;17.13;;;9.23;;
20619;SDS011;10469;42.720;23.252;2023-06-22T13:43:23;12.20;;;7.85;;
20619;SDS011;10469;42.720;23.252;2023-06-22T13:45:49;16.00;;;9.40;;
20619;SDS011;10469;42.720;23.252;2023-06-22T13:48:14;13.30;;;9.13;;
20619;SDS011;10469;42.720;23.252;2023-06-22T13:50:40;11.73;;;8.60;;
20619;SDS011;10469;42.720;23.252;2023-06-22T13:53:05;12.90;;;8.70;;
20619;SDS011;10469;42.720;23.252;2023-06-22T13:55:31;13.50;;;8.98;;
20619;SDS011;10469;42.720;23.252;2023-06-22T13:57:56;13.35;;;9.43;;
20619;SDS011;10469;42.720;23.252;2023-06-22T14:00:22;14.10;;;9.25;;
20619;SDS011;10469;42.720;23.252;2023-06-22T14:02:48;18.55;;;9.68;;
20619;SDS011;10469;42.720;23.252;2023-06-22T14:05:13;13.32;;;8.90;;
20619;SDS011;10469;42.720;23.252;2023-06-22T14:07:39;12.18;;;9.85;;
20619;SDS011;10469;42.720;23.252;2023-06-22T14:10:05;11.70;;;8.88;;
20619;SDS011;10469;42.720;23.252;2023-06-22T14:12:33;11.65;;;9.18;;
20619;SDS011;10469;42.720;23.252;2023-06-22T14:14:59;14.70;;;8.82;;
20619;SDS011;10469;42.720;23.252;2023-06-22T14:17:25;11.85;;;9.43;;
20619;SDS011;10469;42.720;23.252;2023-06-22T14:19:51;13.15;;;10.18;;
20619;SDS011;10469;42.720;23.252;2023-06-22T14:22:21;11.82;;;10.32;;
20619;SDS011;10469;42.720;23.252;2023-06-22T14:24:47;14.77;;;8.93;;
20619;SDS011;10469;42.720;23.252;2023-06-22T14:27:14;10.00;;;8.55;;
20619;SDS011;10469;42.720;23.252;2023-06-22T14:29:42;10.60;;;9.20;;
20619;SDS011;10469;42.720;23.252;2023-06-22T14:32:08;17.80;;;10.88;;
20619;SDS011;10469;42.720;23.252;2023-06-22T14:34:34;16.42;;;11.73;;
20619;SDS011;10469;42.720;23.252;2023-06-22T14:37:01;17.85;;;10.30;;
20619;SDS011;10469;42.720;23.252;2023-06-22T14:39:27;14.82;;;10.27;;
20619;SDS011;10469;42.720;23.252;2023-06-22T14:41:53;18.08;;;11.48;;
20619;SDS011;10469;42.720;23.252;2023-06-22T14:44:18;24.02;;;10.43;;
20619;SDS011;10469;42.720;23.252;2023-06-22T14:46:44;20.58;;;10.63;;
20619;SDS011;10469;42.720;23.252;2023-06-22T14:49:09;16.92;;;10.00;;